Terminal Aerodrome Forecast
Issued by NWS Cleveland, OH

Home | Current Version | Previous Version | Text Only | Print | Product List | Glossary Off
Versions: 1 2 3 4 5 6 7 8 9 10 11 12 13 14 15 16 17 18 19 20 21 22 23 24

000
FTUS41 KCLE 280407 AAA
TAFTOL
TAF AMD
KTOL 280407Z 2804/2824 VRB04KT P6SM -RA SCT050 OVC100
     FM280700 03005KT 5SM -RA BR BKN015 OVC025
      TEMPO 2810/2814 2SM -RA BR BKN006 OVC012
     FM281500 02010KT P6SM SCT008 OVC015
     FM282100 01010KT P6SM SCT025 OVC035=

USA.gov is the U.S. government's official web portal to all federal, state and local government web resources and services.